sensor_id;sensor_type;location;lat;lon;timestamp;P1;durP1;ratioP1;P2;durP2;ratioP2
21036;SDS011;10677;50.942;4.028;2023-05-16T00:01:49;16.90;;;2.60;;
21036;SDS011;10677;50.942;4.028;2023-05-16T00:04:15;12.48;;;2.65;;
21036;SDS011;10677;50.942;4.028;2023-05-16T00:06:41;15.93;;;2.40;;
21036;SDS011;10677;50.942;4.028;2023-05-16T00:09:07;12.13;;;2.22;;
21036;SDS011;10677;50.942;4.028;2023-05-16T00:11:33;19.55;;;2.53;;
21036;SDS011;10677;50.942;4.028;2023-05-16T00:13:58;17.13;;;2.75;;
21036;SDS011;10677;50.942;4.028;2023-05-16T00:16:25;18.02;;;2.78;;
21036;SDS011;10677;50.942;4.028;2023-05-16T00:18:53;15.60;;;2.38;;
21036;SDS011;10677;50.942;4.028;2023-05-16T00:21:20;15.35;;;2.10;;
21036;SDS011;10677;50.942;4.028;2023-05-16T00:23:46;17.23;;;2.55;;
21036;SDS011;10677;50.942;4.028;2023-05-16T00:26:12;14.05;;;2.67;;
21036;SDS011;10677;50.942;4.028;2023-05-16T00:28:37;23.08;;;3.90;;
21036;SDS011;10677;50.942;4.028;2023-05-16T00:31:03;13.52;;;2.40;;
21036;SDS011;10677;50.942;4.028;2023-05-16T00:33:29;10.23;;;1.92;;
21036;SDS011;10677;50.942;4.028;2023-05-16T00:35:55;15.05;;;2.20;;
21036;SDS011;10677;50.942;4.028;2023-05-16T00:38:21;17.92;;;3.00;;
21036;SDS011;10677;50.942;4.028;2023-05-16T00:40:46;20.23;;;3.35;;
21036;SDS011;10677;50.942;4.028;2023-05-16T00:43:12;17.35;;;2.65;;
21036;SDS011;10677;50.942;4.028;2023-05-16T00:45:38;14.07;;;2.72;;
21036;SDS011;10677;50.942;4.028;2023-05-16T00:48:03;13.25;;;2.50;;
21036;SDS011;10677;50.942;4.028;2023-05-16T00:50:29;13.85;;;2.35;;
21036;SDS011;10677;50.942;4.028;2023-05-16T00:52:55;16.45;;;2.80;;
21036;SDS011;10677;50.942;4.028;2023-05-16T00:55:21;19.70;;;2.67;;
21036;SDS011;10677;50.942;4.028;2023-05-16T00:57:46;22.20;;;3.03;;
21036;SDS011;10677;50.942;4.028;2023-05-16T01:00:12;20.63;;;3.85;;
21036;SDS011;10677;50.942;4.028;2023-05-16T01:02:41;14.05;;;3.42;;
21036;SDS011;10677;50.942;4.028;2023-05-16T01:05:07;13.40;;;3.05;;
21036;SDS011;10677;50.942;4.028;2023-05-16T01:07:34;16.23;;;3.22;;
21036;SDS011;10677;50.942;4.028;2023-05-16T01:10:00;15.20;;;3.38;;
21036;SDS011;10677;50.942;4.028;2023-05-16T01:15:09;13.85;;;2.53;;
21036;SDS011;10677;50.942;4.028;2023-05-16T01:17:49;12.90;;;3.47;;
21036;SDS011;10677;50.942;4.028;2023-05-16T01:20:31;21.45;;;3.00;;
21036;SDS011;10677;50.942;4.028;2023-05-16T01:28:52;15.63;;;3.00;;
21036;SDS011;10677;50.942;4.028;2023-05-16T01:31:19;20.55;;;2.67;;
21036;SDS011;10677;50.942;4.028;2023-05-16T01:33:45;22.80;;;4.07;;
21036;SDS011;10677;50.942;4.028;2023-05-16T01:36:24;14.40;;;2.53;;
21036;SDS011;10677;50.942;4.028;2023-05-16T01:47:15;19.98;;;3.95;;
21036;SDS011;10677;50.942;4.028;2023-05-16T01:49:54;17.50;;;2.78;;
21036;SDS011;10677;50.942;4.028;2023-05-16T01:55:10;19.40;;;4.00;;
21036;SDS011;10677;50.942;4.028;2023-05-16T01:57:41;13.82;;;2.78;;
21036;SDS011;10677;50.942;4.028;2023-05-16T02:00:09;15.60;;;2.83;;
21036;SDS011;10677;50.942;4.028;2023-05-16T02:02:36;16.27;;;2.70;;
21036;SDS011;10677;50.942;4.028;2023-05-16T02:05:01;17.52;;;3.10;;
21036;SDS011;10677;50.942;4.028;2023-05-16T02:07:27;16.55;;;3.10;;
21036;SDS011;10677;50.942;4.028;2023-05-16T02:09:53;20.38;;;4.20;;
21036;SDS011;10677;50.942;4.028;2023-05-16T02:12:18;16.48;;;2.65;;
21036;SDS011;10677;50.942;4.028;2023-05-16T02:14:44;17.63;;;3.25;;
21036;SDS011;10677;50.942;4.028;2023-05-16T02:17:10;14.13;;;3.20;;
21036;SDS011;10677;50.942;4.028;2023-05-16T02:19:35;14.73;;;2.80;;
21036;SDS011;10677;50.942;4.028;2023-05-16T02:22:01;12.57;;;3.42;;
21036;SDS011;10677;50.942;4.028;2023-05-16T02:24:27;18.45;;;3.40;;
21036;SDS011;10677;50.942;4.028;2023-05-16T02:26:52;14.13;;;3.53;;
21036;SDS011;10677;50.942;4.028;2023-05-16T02:29:18;21.80;;;3.63;;
21036;SDS011;10677;50.942;4.028;2023-05-16T02:31:44;20.77;;;3.75;;
21036;SDS011;10677;50.942;4.028;2023-05-16T02:34:09;12.55;;;2.95;;
21036;SDS011;10677;50.942;4.028;2023-05-16T02:36:35;12.82;;;3.20;;
21036;SDS011;10677;50.942;4.028;2023-05-16T02:39:01;24.55;;;3.45;;
21036;SDS011;10677;50.942;4.028;2023-05-16T02:41:28;17.80;;;3.97;;
21036;SDS011;10677;50.942;4.028;2023-05-16T02:43:54;15.63;;;3.17;;
21036;SDS011;10677;50.942;4.028;2023-05-16T02:46:20;15.07;;;3.78;;
21036;SDS011;10677;50.942;4.028;2023-05-16T02:48:47;14.13;;;2.83;;
21036;SDS011;10677;50.942;4.028;2023-05-16T02:51:13;15.93;;;3.15;;
21036;SDS011;10677;50.942;4.028;2023-05-16T02:53:39;14.98;;;3.47;;
21036;SDS011;10677;50.942;4.028;2023-05-16T02:56:05;14.82;;;4.03;;
21036;SDS011;10677;50.942;4.028;2023-05-16T02:58:31;19.08;;;3.03;;
21036;SDS011;10677;50.942;4.028;2023-05-16T03:00:58;14.85;;;3.78;;
21036;SDS011;10677;50.942;4.028;2023-05-16T03:03:24;17.70;;;4.10;;
21036;SDS011;10677;50.942;4.028;2023-05-16T03:05:50;17.65;;;3.40;;
21036;SDS011;10677;50.942;4.028;2023-05-16T03:08:16;16.27;;;3.28;;
21036;SDS011;10677;50.942;4.028;2023-05-16T03:10:42;22.13;;;3.53;;
21036;SDS011;10677;50.942;4.028;2023-05-16T03:13:07;13.50;;;2.85;;
21036;SDS011;10677;50.942;4.028;2023-05-16T03:15:33;12.45;;;3.17;;
21036;SDS011;10677;50.942;4.028;2023-05-16T03:17:59;17.50;;;3.67;;
21036;SDS011;10677;50.942;4.028;2023-05-16T03:20:24;17.27;;;2.95;;
21036;SDS011;10677;50.942;4.028;2023-05-16T03:22:50;19.63;;;2.97;;
21036;SDS011;10677;50.942;4.028;2023-05-16T03:25:16;11.23;;;2.75;;
21036;SDS011;10677;50.942;4.028;2023-05-16T03:27:41;13.40;;;3.28;;
21036;SDS011;10677;50.942;4.028;2023-05-16T03:30:07;15.32;;;2.72;;
21036;SDS011;10677;50.942;4.028;2023-05-16T03:32:33;15.38;;;2.53;;
21036;SDS011;10677;50.942;4.028;2023-05-16T03:34:59;19.55;;;3.63;;
21036;SDS011;10677;50.942;4.028;2023-05-16T03:37:25;12.93;;;3.30;;
21036;SDS011;10677;50.942;4.028;2023-05-16T03:39:51;19.88;;;3.47;;
21036;SDS011;10677;50.942;4.028;2023-05-16T03:42:16;18.17;;;2.90;;
21036;SDS011;10677;50.942;4.028;2023-05-16T03:44:42;14.68;;;2.80;;
21036;SDS011;10677;50.942;4.028;2023-05-16T03:47:08;14.80;;;3.33;;
21036;SDS011;10677;50.942;4.028;2023-05-16T03:49:34;12.52;;;2.60;;
21036;SDS011;10677;50.942;4.028;2023-05-16T03:52:01;7.70;;;2.60;;
21036;SDS011;10677;50.942;4.028;2023-05-16T03:54:29;15.05;;;2.63;;
21036;SDS011;10677;50.942;4.028;2023-05-16T03:56:55;15.80;;;3.35;;
21036;SDS011;10677;50.942;4.028;2023-05-16T03:59:21;15.45;;;3.10;;
21036;SDS011;10677;50.942;4.028;2023-05-16T04:01:47;18.52;;;4.32;;
21036;SDS011;10677;50.942;4.028;2023-05-16T04:04:14;18.70;;;4.25;;
21036;SDS011;10677;50.942;4.028;2023-05-16T04:06:40;15.63;;;3.45;;
21036;SDS011;10677;50.942;4.028;2023-05-16T04:09:05;17.20;;;3.80;;
21036;SDS011;10677;50.942;4.028;2023-05-16T04:11:31;9.80;;;3.17;;
21036;SDS011;10677;50.942;4.028;2023-05-16T04:13:58;16.77;;;3.88;;
21036;SDS011;10677;50.942;4.028;2023-05-16T04:16:25;25.38;;;5.30;;
21036;SDS011;10677;50.942;4.028;2023-05-16T04:18:51;16.23;;;4.88;;
21036;SDS011;10677;50.942;4.028;2023-05-16T04:21:17;27.73;;;6.05;;
21036;SDS011;10677;50.942;4.028;2023-05-16T04:23:42;18.13;;;4.88;;
21036;SDS011;10677;50.942;4.028;2023-05-16T04:26:08;21.02;;;6.25;;
21036;SDS011;10677;50.942;4.028;2023-05-16T04:28:34;20.00;;;6.07;;
21036;SDS011;10677;50.942;4.028;2023-05-16T04:31:00;21.45;;;7.50;;
21036;SDS011;10677;50.942;4.028;2023-05-16T04:33:26;25.30;;;7.22;;
21036;SDS011;10677;50.942;4.028;2023-05-16T04:35:51;24.42;;;7.97;;
21036;SDS011;10677;50.942;4.028;2023-05-16T04:38:18;19.80;;;6.82;;
21036;SDS011;10677;50.942;4.028;2023-05-16T04:40:44;21.05;;;7.10;;
21036;SDS011;10677;50.942;4.028;2023-05-16T04:43:10;21.27;;;6.68;;
21036;SDS011;10677;50.942;4.028;2023-05-16T04:45:36;21.38;;;6.95;;
21036;SDS011;10677;50.942;4.028;2023-05-16T04:48:01;22.23;;;7.38;;
21036;SDS011;10677;50.942;4.028;2023-05-16T04:50:28;22.63;;;6.82;;
21036;SDS011;10677;50.942;4.028;2023-05-16T04:52:53;25.73;;;7.60;;
21036;SDS011;10677;50.942;4.028;2023-05-16T04:55:19;24.58;;;7.25;;
21036;SDS011;10677;50.942;4.028;2023-05-16T04:57:45;26.98;;;8.02;;
21036;SDS011;10677;50.942;4.028;2023-05-16T05:00:11;24.60;;;8.05;;
21036;SDS011;10677;50.942;4.028;2023-05-16T05:02:38;23.90;;;8.05;;
21036;SDS011;10677;50.942;4.028;2023-05-16T05:05:04;28.50;;;8.68;;
21036;SDS011;10677;50.942;4.028;2023-05-16T05:07:33;27.35;;;8.20;;
21036;SDS011;10677;50.942;4.028;2023-05-16T05:09:59;30.00;;;7.80;;
21036;SDS011;10677;50.942;4.028;2023-05-16T05:12:26;22.33;;;8.15;;
21036;SDS011;10677;50.942;4.028;2023-05-16T05:14:52;30.38;;;8.65;;
21036;SDS011;10677;50.942;4.028;2023-05-16T05:17:18;22.17;;;7.93;;
21036;SDS011;10677;50.942;4.028;2023-05-16T05:19:45;18.25;;;6.85;;
21036;SDS011;10677;50.942;4.028;2023-05-16T05:22:12;22.90;;;7.32;;
21036;SDS011;10677;50.942;4.028;2023-05-16T05:24:38;22.83;;;6.85;;
21036;SDS011;10677;50.942;4.028;2023-05-16T05:27:04;21.55;;;6.82;;
21036;SDS011;10677;50.942;4.028;2023-05-16T05:29:30;25.30;;;6.43;;
21036;SDS011;10677;50.942;4.028;2023-05-16T05:31:56;23.92;;;6.45;;
21036;SDS011;10677;50.942;4.028;2023-05-16T05:34:22;22.30;;;6.78;;
21036;SDS011;10677;50.942;4.028;2023-05-16T05:36:48;18.77;;;6.60;;
21036;SDS011;10677;50.942;4.028;2023-05-16T05:39:13;18.92;;;6.03;;
21036;SDS011;10677;50.942;4.028;2023-05-16T05:41:39;19.15;;;5.85;;
21036;SDS011;10677;50.942;4.028;2023-05-16T05:44:05;21.00;;;7.05;;
21036;SDS011;10677;50.942;4.028;2023-05-16T05:46:31;20.15;;;6.10;;
21036;SDS011;10677;50.942;4.028;2023-05-16T05:48:58;18.60;;;6.03;;
21036;SDS011;10677;50.942;4.028;2023-05-16T05:51:24;17.20;;;6.18;;
21036;SDS011;10677;50.942;4.028;2023-05-16T05:53:50;19.60;;;6.38;;
21036;SDS011;10677;50.942;4.028;2023-05-16T05:56:18;18.95;;;4.97;;
21036;SDS011;10677;50.942;4.028;2023-05-16T05:58:45;16.92;;;4.97;;
21036;SDS011;10677;50.942;4.028;2023-05-16T06:01:11;21.35;;;4.72;;
21036;SDS011;10677;50.942;4.028;2023-05-16T06:03:40;14.30;;;4.82;;
21036;SDS011;10677;50.942;4.028;2023-05-16T06:06:07;20.33;;;6.57;;
21036;SDS011;10677;50.942;4.028;2023-05-16T06:08:33;18.50;;;5.05;;
21036;SDS011;10677;50.942;4.028;2023-05-16T06:10:58;13.60;;;4.55;;
21036;SDS011;10677;50.942;4.028;2023-05-16T06:13:24;16.73;;;4.57;;
21036;SDS011;10677;50.942;4.028;2023-05-16T06:15:50;16.67;;;5.15;;
21036;SDS011;10677;50.942;4.028;2023-05-16T06:18:16;15.35;;;3.55;;
21036;SDS011;10677;50.942;4.028;2023-05-16T06:20:42;14.45;;;3.67;;
21036;SDS011;10677;50.942;4.028;2023-05-16T06:23:07;18.42;;;3.90;;
21036;SDS011;10677;50.942;4.028;2023-05-16T06:25:36;13.48;;;3.30;;
21036;SDS011;10677;50.942;4.028;2023-05-16T06:28:01;11.55;;;3.63;;
21036;SDS011;10677;50.942;4.028;2023-05-16T06:30:27;16.83;;;3.28;;
21036;SDS011;10677;50.942;4.028;2023-05-16T06:32:53;10.80;;;2.28;;
21036;SDS011;10677;50.942;4.028;2023-05-16T06:35:20;14.57;;;3.45;;
21036;SDS011;10677;50.942;4.028;2023-05-16T06:37:47;9.55;;;1.85;;
21036;SDS011;10677;50.942;4.028;2023-05-16T06:40:13;10.15;;;1.58;;
21036;SDS011;10677;50.942;4.028;2023-05-16T06:42:39;14.10;;;1.83;;
21036;SDS011;10677;50.942;4.028;2023-05-16T06:45:05;13.55;;;2.20;;
21036;SDS011;10677;50.942;4.028;2023-05-16T06:47:32;10.50;;;1.50;;
21036;SDS011;10677;50.942;4.028;2023-05-16T06:50:01;13.25;;;1.98;;
21036;SDS011;10677;50.942;4.028;2023-05-16T06:52:27;11.45;;;2.08;;
21036;SDS011;10677;50.942;4.028;2023-05-16T06:54:53;9.90;;;1.75;;
21036;SDS011;10677;50.942;4.028;2023-05-16T06:57:18;16.80;;;3.53;;
21036;SDS011;10677;50.942;4.028;2023-05-16T06:59:44;8.85;;;1.95;;
21036;SDS011;10677;50.942;4.028;2023-05-16T07:02:10;13.65;;;1.75;;
21036;SDS011;10677;50.942;4.028;2023-05-16T07:04:36;10.27;;;1.40;;
21036;SDS011;10677;50.942;4.028;2023-05-16T07:07:04;10.05;;;1.65;;
21036;SDS011;10677;50.942;4.028;2023-05-16T07:09:32;8.57;;;1.70;;
21036;SDS011;10677;50.942;4.028;2023-05-16T07:11:57;7.32;;;1.42;;
21036;SDS011;10677;50.942;4.028;2023-05-16T07:14:23;12.18;;;1.40;;
21036;SDS011;10677;50.942;4.028;2023-05-16T07:16:49;11.48;;;1.33;;
21036;SDS011;10677;50.942;4.028;2023-05-16T07:19:18;12.88;;;1.52;;
21036;SDS011;10677;50.942;4.028;2023-05-16T07:21:46;9.57;;;1.50;;
21036;SDS011;10677;50.942;4.028;2023-05-16T07:24:12;8.75;;;1.17;;
21036;SDS011;10677;50.942;4.028;2023-05-16T07:26:38;12.82;;;1.48;;
21036;SDS011;10677;50.942;4.028;2023-05-16T07:29:04;7.20;;;1.50;;
21036;SDS011;10677;50.942;4.028;2023-05-16T07:31:29;10.20;;;1.52;;
21036;SDS011;10677;50.942;4.028;2023-05-16T07:33:56;6.63;;;1.60;;
21036;SDS011;10677;50.942;4.028;2023-05-16T07:36:31;13.63;;;1.50;;
21036;SDS011;10677;50.942;4.028;2023-05-16T07:39:00;5.97;;;1.00;;
21036;SDS011;10677;50.942;4.028;2023-05-16T07:41:26;5.93;;;0.85;;
21036;SDS011;10677;50.942;4.028;2023-05-16T07:43:53;8.98;;;1.10;;
21036;SDS011;10677;50.942;4.028;2023-05-16T07:46:18;7.80;;;1.42;;
21036;SDS011;10677;50.942;4.028;2023-05-16T07:48:44;10.13;;;1.52;;
21036;SDS011;10677;50.942;4.028;2023-05-16T07:51:13;9.52;;;1.40;;
21036;SDS011;10677;50.942;4.028;2023-05-16T07:53:39;6.85;;;0.98;;
21036;SDS011;10677;50.942;4.028;2023-05-16T07:56:11;7.85;;;1.35;;
21036;SDS011;10677;50.942;4.028;2023-05-16T07:58:37;7.68;;;1.27;;
21036;SDS011;10677;50.942;4.028;2023-05-16T08:01:06;8.02;;;1.17;;
21036;SDS011;10677;50.942;4.028;2023-05-16T08:03:32;9.90;;;1.42;;
21036;SDS011;10677;50.942;4.028;2023-05-16T08:06:06;8.48;;;1.38;;
21036;SDS011;10677;50.942;4.028;2023-05-16T08:11:54;7.03;;;1.65;;
21036;SDS011;10677;50.942;4.028;2023-05-16T08:14:27;4.82;;;0.93;;
21036;SDS011;10677;50.942;4.028;2023-05-16T08:16:54;5.63;;;1.08;;
21036;SDS011;10677;50.942;4.028;2023-05-16T08:19:25;8.75;;;1.30;;
21036;SDS011;10677;50.942;4.028;2023-05-16T08:21:51;5.47;;;0.80;;
21036;SDS011;10677;50.942;4.028;2023-05-16T08:24:17;5.38;;;1.00;;
21036;SDS011;10677;50.942;4.028;2023-05-16T08:26:43;10.27;;;1.77;;
21036;SDS011;10677;50.942;4.028;2023-05-16T08:29:14;8.98;;;1.40;;
21036;SDS011;10677;50.942;4.028;2023-05-16T08:31:51;6.85;;;0.90;;
21036;SDS011;10677;50.942;4.028;2023-05-16T08:34:21;7.80;;;1.15;;
21036;SDS011;10677;50.942;4.028;2023-05-16T08:36:48;8.00;;;1.05;;
21036;SDS011;10677;50.942;4.028;2023-05-16T08:39:14;5.25;;;0.88;;
21036;SDS011;10677;50.942;4.028;2023-05-16T08:44:42;6.30;;;1.00;;
21036;SDS011;10677;50.942;4.028;2023-05-16T08:47:14;3.38;;;0.70;;
21036;SDS011;10677;50.942;4.028;2023-05-16T08:49:46;10.52;;;1.00;;
21036;SDS011;10677;50.942;4.028;2023-05-16T08:52:12;4.65;;;0.80;;
21036;SDS011;10677;50.942;4.028;2023-05-16T08:54:42;5.28;;;1.15;;
21036;SDS011;10677;50.942;4.028;2023-05-16T08:57:13;10.23;;;1.00;;
21036;SDS011;10677;50.942;4.028;2023-05-16T08:59:41;5.70;;;1.02;;
21036;SDS011;10677;50.942;4.028;2023-05-16T09:02:09;8.63;;;1.33;;
21036;SDS011;10677;50.942;4.028;2023-05-16T09:04:36;8.85;;;1.70;;
21036;SDS011;10677;50.942;4.028;2023-05-16T09:07:02;8.50;;;1.50;;
21036;SDS011;10677;50.942;4.028;2023-05-16T09:09:28;8.63;;;1.10;;
21036;SDS011;10677;50.942;4.028;2023-05-16T09:11:56;6.68;;;1.00;;
21036;SDS011;10677;50.942;4.028;2023-05-16T09:14:21;7.50;;;1.48;;
21036;SDS011;10677;50.942;4.028;2023-05-16T09:17:06;5.38;;;0.70;;
21036;SDS011;10677;50.942;4.028;2023-05-16T11:39:58;4.50;;;1.23;;
21036;SDS011;10677;50.942;4.028;2023-05-16T11:42:33;5.72;;;1.75;;
21036;SDS011;10677;50.942;4.028;2023-05-16T11:45:06;7.18;;;1.15;;
21036;SDS011;10677;50.942;4.028;2023-05-16T11:47:35;7.65;;;1.40;;
21036;SDS011;10677;50.942;4.028;2023-05-16T11:50:05;7.38;;;0.98;;
21036;SDS011;10677;50.942;4.028;2023-05-16T11:52:53;8.10;;;1.17;;
21036;SDS011;10677;50.942;4.028;2023-05-16T11:55:23;3.00;;;0.70;;
21036;SDS011;10677;50.942;4.028;2023-05-16T11:57:50;6.88;;;0.95;;
21036;SDS011;10677;50.942;4.028;2023-05-16T12:00:22;4.13;;;0.80;;
21036;SDS011;10677;50.942;4.028;2023-05-16T12:02:49;4.47;;;0.90;;
21036;SDS011;10677;50.942;4.028;2023-05-16T12:05:16;6.18;;;0.98;;
21036;SDS011;10677;50.942;4.028;2023-05-16T12:07:44;2.95;;;0.75;;
21036;SDS011;10677;50.942;4.028;2023-05-16T12:10:12;11.02;;;1.33;;
21036;SDS011;10677;50.942;4.028;2023-05-16T12:12:40;7.28;;;0.70;;
21036;SDS011;10677;50.942;4.028;2023-05-16T12:15:07;6.35;;;1.15;;
21036;SDS011;10677;50.942;4.028;2023-05-16T12:17:34;8.50;;;1.10;;
21036;SDS011;10677;50.942;4.028;2023-05-16T12:20:00;5.10;;;0.68;;
21036;SDS011;10677;50.942;4.028;2023-05-16T12:22:31;7.53;;;0.73;;
21036;SDS011;10677;50.942;4.028;2023-05-16T12:25:17;4.53;;;1.10;;
21036;SDS011;10677;50.942;4.028;2023-05-16T12:27:49;5.97;;;1.05;;
21036;SDS011;10677;50.942;4.028;2023-05-16T12:30:17;5.22;;;1.33;;
21036;SDS011;10677;50.942;4.028;2023-05-16T12:32:43;7.72;;;1.95;;
21036;SDS011;10677;50.942;4.028;2023-05-16T12:35:09;4.93;;;0.80;;
21036;SDS011;10677;50.942;4.028;2023-05-16T12:37:37;7.25;;;1.10;;
21036;SDS011;10677;50.942;4.028;2023-05-16T12:40:02;6.97;;;1.20;;
21036;SDS011;10677;50.942;4.028;2023-05-16T12:42:30;4.88;;;1.08;;
21036;SDS011;10677;50.942;4.028;2023-05-16T12:44:55;4.32;;;0.80;;
21036;SDS011;10677;50.942;4.028;2023-05-16T12:47:33;4.22;;;0.82;;
21036;SDS011;10677;50.942;4.028;2023-05-16T12:50:01;3.75;;;0.88;;
21036;SDS011;10677;50.942;4.028;2023-05-16T12:52:28;6.05;;;1.10;;
21036;SDS011;10677;50.942;4.028;2023-05-16T12:54:56;4.70;;;0.90;;
21036;SDS011;10677;50.942;4.028;2023-05-16T12:57:22;7.00;;;0.90;;
21036;SDS011;10677;50.942;4.028;2023-05-16T12:59:48;5.20;;;0.77;;
21036;SDS011;10677;50.942;4.028;2023-05-16T13:02:13;4.85;;;1.00;;
21036;SDS011;10677;50.942;4.028;2023-05-16T13:04:40;6.50;;;1.05;;
21036;SDS011;10677;50.942;4.028;2023-05-16T13:07:06;4.35;;;0.85;;
21036;SDS011;10677;50.942;4.028;2023-05-16T13:09:32;4.25;;;0.75;;
21036;SDS011;10677;50.942;4.028;2023-05-16T13:11:57;4.53;;;0.90;;
21036;SDS011;10677;50.942;4.028;2023-05-16T13:14:24;6.03;;;1.17;;
21036;SDS011;10677;50.942;4.028;2023-05-16T13:16:51;4.65;;;1.00;;
21036;SDS011;10677;50.942;4.028;2023-05-16T13:19:19;4.65;;;1.05;;
21036;SDS011;10677;50.942;4.028;2023-05-16T13:21:50;6.07;;;1.20;;
21036;SDS011;10677;50.942;4.028;2023-05-16T13:24:16;6.70;;;1.42;;
21036;SDS011;10677;50.942;4.028;2023-05-16T13:26:41;7.13;;;1.20;;
21036;SDS011;10677;50.942;4.028;2023-05-16T13:29:08;6.32;;;1.10;;
21036;SDS011;10677;50.942;4.028;2023-05-16T13:31:35;5.97;;;0.90;;
21036;SDS011;10677;50.942;4.028;2023-05-16T13:34:01;5.43;;;0.90;;
21036;SDS011;10677;50.942;4.028;2023-05-16T13:36:26;4.63;;;0.82;;
21036;SDS011;10677;50.942;4.028;2023-05-16T13:38:52;4.18;;;1.15;;
21036;SDS011;10677;50.942;4.028;2023-05-16T13:41:18;4.38;;;0.68;;
21036;SDS011;10677;50.942;4.028;2023-05-16T13:43:44;4.13;;;1.00;;
21036;SDS011;10677;50.942;4.028;2023-05-16T13:46:09;6.55;;;1.00;;
21036;SDS011;10677;50.942;4.028;2023-05-16T13:48:35;3.08;;;0.65;;
21036;SDS011;10677;50.942;4.028;2023-05-16T13:51:01;7.32;;;1.33;;
21036;SDS011;10677;50.942;4.028;2023-05-16T13:53:27;4.97;;;0.88;;
21036;SDS011;10677;50.942;4.028;2023-05-16T13:55:53;6.15;;;1.60;;
21036;SDS011;10677;50.942;4.028;2023-05-16T13:58:19;5.03;;;1.20;;
21036;SDS011;10677;50.942;4.028;2023-05-16T14:00:47;5.43;;;1.02;;
21036;SDS011;10677;50.942;4.028;2023-05-16T14:03:14;3.72;;;1.08;;
21036;SDS011;10677;50.942;4.028;2023-05-16T14:05:43;3.78;;;0.70;;
21036;SDS011;10677;50.942;4.028;2023-05-16T14:08:08;4.68;;;1.00;;
21036;SDS011;10677;50.942;4.028;2023-05-16T14:10:34;3.97;;;1.20;;
21036;SDS011;10677;50.942;4.028;2023-05-16T14:13:01;6.25;;;1.10;;
21036;SDS011;10677;50.942;4.028;2023-05-16T14:15:27;4.05;;;0.65;;
21036;SDS011;10677;50.942;4.028;2023-05-16T14:17:53;6.57;;;1.52;;
21036;SDS011;10677;50.942;4.028;2023-05-16T14:20:19;4.32;;;1.00;;
21036;SDS011;10677;50.942;4.028;2023-05-16T14:22:45;3.90;;;1.10;;
21036;SDS011;10677;50.942;4.028;2023-05-16T14:25:10;3.88;;;0.90;;
21036;SDS011;10677;50.942;4.028;2023-05-16T14:27:36;3.88;;;1.05;;
21036;SDS011;10677;50.942;4.028;2023-05-16T14:30:02;5.35;;;1.00;;
21036;SDS011;10677;50.942;4.028;2023-05-16T14:32:28;4.53;;;1.52;;
21036;SDS011;10677;50.942;4.028;2023-05-16T14:34:54;4.10;;;0.90;;
21036;SDS011;10677;50.942;4.028;2023-05-16T14:37:20;4.25;;;1.10;;
21036;SDS011;10677;50.942;4.028;2023-05-16T14:39:46;5.22;;;1.02;;
21036;SDS011;10677;50.942;4.028;2023-05-16T14:42:16;5.55;;;1.00;;
21036;SDS011;10677;50.942;4.028;2023-05-16T14:44:42;3.38;;;0.88;;
21036;SDS011;10677;50.942;4.028;2023-05-16T14:47:08;7.35;;;0.95;;
21036;SDS011;10677;50.942;4.028;2023-05-16T14:49:34;3.75;;;0.75;;
21036;SDS011;10677;50.942;4.028;2023-05-16T14:52:00;5.20;;;0.77;;
21036;SDS011;10677;50.942;4.028;2023-05-16T14:54:26;3.75;;;0.65;;
21036;SDS011;10677;50.942;4.028;2023-05-16T14:56:52;3.03;;;0.85;;
21036;SDS011;10677;50.942;4.028;2023-05-16T14:59:17;5.93;;;1.00;;
21036;SDS011;10677;50.942;4.028;2023-05-16T15:01:43;5.50;;;1.17;;
21036;SDS011;10677;50.942;4.028;2023-05-16T15:04:09;2.78;;;0.52;;
21036;SDS011;10677;50.942;4.028;2023-05-16T15:06:34;3.53;;;0.73;;
21036;SDS011;10677;50.942;4.028;2023-05-16T15:09:00;2.92;;;0.70;;
21036;SDS011;10677;50.942;4.028;2023-05-16T15:11:27;5.55;;;0.80;;
21036;SDS011;10677;50.942;4.028;2023-05-16T15:13:53;4.45;;;0.88;;
21036;SDS011;10677;50.942;4.028;2023-05-16T15:16:20;4.05;;;0.60;;
21036;SDS011;10677;50.942;4.028;2023-05-16T15:18:45;3.25;;;0.73;;
21036;SDS011;10677;50.942;4.028;2023-05-16T15:21:11;3.97;;;0.82;;
21036;SDS011;10677;50.942;4.028;2023-05-16T15:23:37;3.38;;;0.52;;
21036;SDS011;10677;50.942;4.028;2023-05-16T15:26:03;4.55;;;0.65;;
21036;SDS011;10677;50.942;4.028;2023-05-16T15:28:28;5.30;;;1.10;;
21036;SDS011;10677;50.942;4.028;2023-05-16T15:30:54;5.70;;;1.20;;
21036;SDS011;10677;50.942;4.028;2023-05-16T15:33:20;3.75;;;0.90;;
21036;SDS011;10677;50.942;4.028;2023-05-16T15:35:45;3.22;;;0.57;;
21036;SDS011;10677;50.942;4.028;2023-05-16T15:38:12;6.13;;;0.70;;
21036;SDS011;10677;50.942;4.028;2023-05-16T15:40:37;5.38;;;0.77;;
21036;SDS011;10677;50.942;4.028;2023-05-16T15:43:03;3.45;;;0.45;;
21036;SDS011;10677;50.942;4.028;2023-05-16T15:45:29;4.43;;;1.02;;
21036;SDS011;10677;50.942;4.028;2023-05-16T15:47:54;6.78;;;0.80;;
21036;SDS011;10677;50.942;4.028;2023-05-16T15:50:20;6.63;;;0.90;;
21036;SDS011;10677;50.942;4.028;2023-05-16T15:52:46;4.53;;;0.65;;
21036;SDS011;10677;50.942;4.028;2023-05-16T15:55:12;3.03;;;0.50;;
21036;SDS011;10677;50.942;4.028;2023-05-16T15:57:37;1.83;;;0.52;;
21036;SDS011;10677;50.942;4.028;2023-05-16T16:00:04;5.32;;;0.70;;
21036;SDS011;10677;50.942;4.028;2023-05-16T16:02:32;3.80;;;1.20;;
21036;SDS011;10677;50.942;4.028;2023-05-16T16:04:59;4.82;;;0.70;;
21036;SDS011;10677;50.942;4.028;2023-05-16T16:07:25;2.63;;;0.65;;
21036;SDS011;10677;50.942;4.028;2023-05-16T16:09:50;2.88;;;0.57;;
21036;SDS011;10677;50.942;4.028;2023-05-16T16:12:16;2.35;;;0.70;;
21036;SDS011;10677;50.942;4.028;2023-05-16T16:14:43;4.75;;;0.73;;
21036;SDS011;10677;50.942;4.028;2023-05-16T16:17:09;3.88;;;0.70;;
21036;SDS011;10677;50.942;4.028;2023-05-16T16:19:34;4.60;;;1.10;;
21036;SDS011;10677;50.942;4.028;2023-05-16T16:22:00;4.72;;;0.60;;
21036;SDS011;10677;50.942;4.028;2023-05-16T16:24:26;3.67;;;0.65;;
21036;SDS011;10677;50.942;4.028;2023-05-16T16:26:51;2.45;;;0.50;;
21036;SDS011;10677;50.942;4.028;2023-05-16T16:29:17;3.10;;;0.50;;
21036;SDS011;10677;50.942;4.028;2023-05-16T16:31:43;3.33;;;0.55;;
21036;SDS011;10677;50.942;4.028;2023-05-16T16:34:08;3.80;;;0.47;;
21036;SDS011;10677;50.942;4.028;2023-05-16T16:36:34;4.03;;;0.82;;
21036;SDS011;10677;50.942;4.028;2023-05-16T16:39:00;2.60;;;0.68;;
21036;SDS011;10677;50.942;4.028;2023-05-16T16:41:25;4.07;;;0.70;;
21036;SDS011;10677;50.942;4.028;2023-05-16T16:43:51;3.40;;;0.88;;
21036;SDS011;10677;50.942;4.028;2023-05-16T16:46:16;3.78;;;0.88;;
21036;SDS011;10677;50.942;4.028;2023-05-16T16:48:44;3.22;;;0.50;;
21036;SDS011;10677;50.942;4.028;2023-05-16T16:51:11;4.40;;;0.52;;
21036;SDS011;10677;50.942;4.028;2023-05-16T16:53:37;6.05;;;0.93;;
21036;SDS011;10677;50.942;4.028;2023-05-16T16:56:02;4.53;;;0.60;;
21036;SDS011;10677;50.942;4.028;2023-05-16T16:58:28;2.88;;;0.80;;
21036;SDS011;10677;50.942;4.028;2023-05-16T17:00:54;3.45;;;0.73;;
21036;SDS011;10677;50.942;4.028;2023-05-16T17:03:20;3.00;;;0.60;;
21036;SDS011;10677;50.942;4.028;2023-05-16T17:05:45;4.20;;;0.60;;
21036;SDS011;10677;50.942;4.028;2023-05-16T17:08:11;3.15;;;0.95;;
21036;SDS011;10677;50.942;4.028;2023-05-16T17:10:37;4.30;;;0.82;;
21036;SDS011;10677;50.942;4.028;2023-05-16T17:13:03;7.57;;;0.82;;
21036;SDS011;10677;50.942;4.028;2023-05-16T17:15:33;4.65;;;0.75;;
21036;SDS011;10677;50.942;4.028;2023-05-16T17:18:00;5.18;;;0.80;;
21036;SDS011;10677;50.942;4.028;2023-05-16T17:20:26;2.88;;;0.70;;
21036;SDS011;10677;50.942;4.028;2023-05-16T17:22:51;3.42;;;0.80;;
21036;SDS011;10677;50.942;4.028;2023-05-16T17:25:17;3.63;;;0.93;;